Time;durP1;ratioP1;P1;durP2;ratioP2;P2;SDS_P1;SDS_P2;PMS_P1;PMS_P2;Temp;Humidity;BMP_temperature;BMP_pressure;BME280_temperature;BME280_humidity;BME280_pressure;Samples;Min_cycle;Max_cycle;Signal;HPM_P1;HPM_P2
2024/01/29 00:00:04;;;;;;;51.60;31.42;;;2.80;77.60;;;;;;5060148;28;20230;-78
2024/01/29 00:02:38;;;;;;;62.03;31.38;;;2.90;77.50;;;;;;5047380;28;20685;-78
2024/01/29 00:05:08;;;;;;;49.22;29.67;;;2.90;77.50;;;;;;5058246;28;20644;-79
2024/01/29 00:07:37;;;;;;;63.83;34.45;;;2.90;77.50;;;;;;5070777;28;20298;-79
2024/01/29 00:10:07;;;;;;;62.83;31.73;;;2.90;77.40;;;;;;5050306;28;20783;-78
2024/01/29 00:12:35;;;;;;;46.00;25.92;;;2.90;77.30;;;;;;5054649;28;20641;-78
2024/01/29 00:15:04;;;;;;;37.88;21.92;;;2.80;77.30;;;;;;5054554;28;20230;-77
2024/01/29 00:17:32;;;;;;;26.40;16.73;;;2.80;77.30;;;;;;5052008;28;20642;-77
2024/01/29 00:20:01;;;;;;;29.30;16.70;;;2.80;77.30;;;;;;5054751;28;20215;-75
2024/01/29 00:22:29;;;;;;;30.83;17.48;;;2.80;77.30;;;;;;5054661;28;20307;-77
2024/01/29 00:24:57;;;;;;;23.02;15.02;;;2.80;77.30;;;;;;5053724;28;20200;-77
2024/01/29 00:27:26;;;;;;;25.80;15.70;;;2.80;77.30;;;;;;5055932;28;20224;-77
2024/01/29 00:29:54;;;;;;;23.17;15.18;;;2.80;77.20;;;;;;5057488;28;20254;-77
2024/01/29 00:32:23;;;;;;;21.30;13.43;;;2.80;77.20;;;;;;5065111;28;20228;-76
2024/01/29 00:34:52;;;;;;;21.65;14.10;;;2.80;77.20;;;;;;5054925;28;20259;-76
2024/01/29 00:37:22;;;;;;;23.80;14.45;;;2.70;77.00;;;;;;5056828;28;20577;-78
2024/01/29 00:39:50;;;;;;;21.48;14.15;;;2.70;76.90;;;;;;5062670;28;20219;-78
2024/01/29 00:42:19;;;;;;;29.83;16.00;;;2.70;76.90;;;;;;5056168;28;20216;-76
2024/01/29 00:44:49;;;;;;;29.23;17.90;;;2.60;76.90;;;;;;5057200;28;20202;-77
2024/01/29 00:47:20;;;;;;;34.30;18.58;;;2.60;76.80;;;;;;5057858;28;20224;-76
2024/01/29 00:49:48;;;;;;;33.25;18.85;;;2.50;76.80;;;;;;5048879;28;20207;-77
2024/01/29 00:52:16;;;;;;;36.15;19.40;;;2.50;76.90;;;;;;5054861;28;20203;-77
2024/01/29 00:54:45;;;;;;;32.58;17.65;;;2.50;77.00;;;;;;5051374;28;20230;-77
2024/01/29 00:57:15;;;;;;;27.95;17.00;;;2.50;76.90;;;;;;5058885;28;20290;-77
2024/01/29 00:59:44;;;;;;;28.88;17.40;;;2.50;76.80;;;;;;5057273;28;20204;-77
2024/01/29 01:02:12;;;;;;;37.33;20.40;;;2.40;76.70;;;;;;5053233;28;20672;-76
2024/01/29 01:04:40;;;;;;;40.47;19.98;;;2.40;76.50;;;;;;5057000;28;20191;-77
2024/01/29 01:07:08;;;;;;;42.92;22.40;;;2.30;76.40;;;;;;5061434;28;20207;-77
2024/01/29 01:09:37;;;;;;;38.33;20.95;;;2.20;76.50;;;;;;5058923;28;20214;-77
2024/01/29 01:12:07;;;;;;;34.75;20.60;;;2.20;76.80;;;;;;5057640;28;20200;-77
2024/01/29 01:14:35;;;;;;;38.67;22.30;;;2.20;76.70;;;;;;5056237;28;20222;-77
2024/01/29 01:17:04;;;;;;;35.33;21.38;;;2.20;76.60;;;;;;5060716;28;20734;-77
2024/01/29 01:19:32;;;;;;;38.08;21.73;;;2.10;76.60;;;;;;5055292;28;20295;-77
2024/01/29 01:22:00;;;;;;;36.45;20.65;;;2.10;76.60;;;;;;5055559;28;20212;-76
2024/01/29 01:24:29;;;;;;;37.55;21.20;;;2.10;76.60;;;;;;5059604;28;20225;-77
2024/01/29 01:26:57;;;;;;;38.38;21.02;;;2.10;76.70;;;;;;5061412;28;20257;-77
2024/01/29 01:29:26;;;;;;;37.05;19.65;;;2.10;76.80;;;;;;5061206;28;20249;-78
2024/01/29 01:31:54;;;;;;;32.90;17.83;;;2.20;76.80;;;;;;5053437;28;20216;-77
2024/01/29 01:34:22;;;;;;;25.98;15.20;;;2.20;76.80;;;;;;5049828;28;20224;-77
2024/01/29 01:36:51;;;;;;;26.38;13.80;;;2.20;76.80;;;;;;5053316;28;20233;-77
2024/01/29 01:39:19;;;;;;;27.13;14.45;;;2.20;76.70;;;;;;5058038;28;20227;-77
2024/01/29 01:41:49;;;;;;;25.20;14.70;;;2.20;76.70;;;;;;5054700;28;20219;-77
2024/01/29 01:44:17;;;;;;;29.77;18.10;;;2.30;76.80;;;;;;5058707;28;20192;-77
2024/01/29 01:46:46;;;;;;;29.33;17.00;;;2.30;76.60;;;;;;5060817;28;20678;-77
2024/01/29 01:49:16;;;;;;;23.63;15.65;;;2.20;76.20;;;;;;5055559;28;20214;-77
2024/01/29 01:51:45;;;;;;;27.65;17.35;;;2.10;76.20;;;;;;5044153;28;20574;-77
2024/01/29 01:54:14;;;;;;;30.75;18.85;;;2.00;76.10;;;;;;5056278;28;20230;-78
2024/01/29 01:56:43;;;;;;;38.35;21.33;;;1.90;76.30;;;;;;5069900;28;20290;-75
2024/01/29 01:59:12;;;;;;;30.17;20.08;;;1.90;76.40;;;;;;5055591;28;20614;-77
2024/01/29 02:01:40;;;;;;;32.85;18.40;;;1.90;76.50;;;;;;5055367;28;20239;-76
2024/01/29 02:04:10;;;;;;;34.38;19.65;;;1.90;76.60;;;;;;5058287;28;20227;-78
2024/01/29 02:06:41;;;;;;;26.25;17.25;;;1.90;76.50;;;;;;5057169;28;20226;-77
2024/01/29 02:09:09;;;;;;;21.58;13.52;;;1.90;76.60;;;;;;5051286;28;20260;-77
2024/01/29 02:11:37;;;;;;;21.20;13.18;;;1.90;76.60;;;;;;5051678;28;20212;-77
2024/01/29 02:14:05;;;;;;;23.20;13.15;;;1.90;76.70;;;;;;5059869;28;20221;-77
2024/01/29 02:16:33;;;;;;;23.50;13.75;;;1.90;76.80;;;;;;5055180;28;20302;-78
2024/01/29 02:19:04;;;;;;;24.13;14.80;;;2.00;76.80;;;;;;5054861;28;20533;-77
2024/01/29 02:21:33;;;;;;;25.42;14.43;;;2.00;76.70;;;;;;5055273;28;20603;-77
2024/01/29 02:24:03;;;;;;;24.98;16.08;;;2.00;76.30;;;;;;5045383;28;20219;-77
2024/01/29 02:26:31;;;;;;;27.38;16.00;;;1.90;76.10;;;;;;5069966;28;20205;-76
2024/01/29 02:28:58;;;;;;;25.52;14.52;;;1.80;76.10;;;;;;5050991;28;20302;-76
2024/01/29 02:31:27;;;;;;;20.77;13.90;;;1.80;76.40;;;;;;5057874;28;20318;-77
2024/01/29 02:33:55;;;;;;;24.02;13.60;;;1.80;76.50;;;;;;5057617;28;20207;-77
2024/01/29 02:36:23;;;;;;;21.48;13.35;;;1.80;76.40;;;;;;5052392;28;20325;-77
2024/01/29 02:38:51;;;;;;;24.48;14.00;;;1.80;76.30;;;;;;5044039;28;20237;-77
2024/01/29 02:41:20;;;;;;;24.40;15.02;;;1.70;76.30;;;;;;5058296;28;20199;-77
2024/01/29 02:43:48;;;;;;;19.95;13.38;;;1.70;76.30;;;;;;5057810;28;21056;-77
2024/01/29 02:46:18;;;;;;;23.38;14.02;;;1.70;76.50;;;;;;5057765;28;20199;-77
2024/01/29 02:48:47;;;;;;;22.40;13.50;;;1.70;76.60;;;;;;5054606;28;20283;-77
2024/01/29 02:51:15;;;;;;;18.98;12.27;;;1.70;76.70;;;;;;5056451;28;20215;-77
2024/01/29 02:53:43;;;;;;;23.27;14.70;;;1.80;76.70;;;;;;5056026;28;20761;-77
2024/01/29 02:56:11;;;;;;;20.45;13.93;;;1.80;76.70;;;;;;5049673;28;20225;-78
2024/01/29 02:58:40;;;;;;;19.73;12.65;;;1.80;76.60;;;;;;5055994;28;20254;-78
2024/01/29 03:01:09;;;;;;;21.02;12.55;;;1.90;76.60;;;;;;5047473;28;20226;-78
2024/01/29 03:03:38;;;;;;;19.38;11.80;;;1.90;76.60;;;;;;5052779;28;20209;-78
2024/01/29 03:06:06;;;;;;;18.52;11.98;;;1.90;76.60;;;;;;5055132;28;20666;-78
2024/01/29 03:08:34;;;;;;;19.92;12.05;;;1.90;76.40;;;;;;5060419;28;20296;-78
2024/01/29 03:11:03;;;;;;;20.60;11.52;;;1.80;76.30;;;;;;5061065;28;20749;-78
2024/01/29 03:13:31;;;;;;;19.23;11.40;;;1.80;76.40;;;;;;5051593;28;20208;-78
2024/01/29 03:16:00;;;;;;;22.92;14.02;;;1.80;76.30;;;;;;5051443;28;20223;-78
2024/01/29 03:18:28;;;;;;;24.98;15.32;;;1.80;76.30;;;;;;5057903;28;20610;-78
2024/01/29 03:20:57;;;;;;;21.30;13.52;;;1.70;76.10;;;;;;5057534;28;20202;-78
2024/01/29 03:23:25;;;;;;;26.58;14.77;;;1.60;76.10;;;;;;5055290;28;20200;-77
2024/01/29 03:25:53;;;;;;;22.17;14.65;;;1.60;76.10;;;;;;5054182;28;20198;-77
2024/01/29 03:28:21;;;;;;;18.92;12.13;;;1.50;76.00;;;;;;5049224;28;20208;-76
2024/01/29 03:30:49;;;;;;;21.38;13.27;;;1.50;76.10;;;;;;5041363;28;20276;-76
2024/01/29 03:33:18;;;;;;;21.10;11.95;;;1.40;76.10;;;;;;5054987;28;20292;-76
2024/01/29 03:35:46;;;;;;;19.50;11.82;;;1.50;76.30;;;;;;5061493;28;20269;-77
2024/01/29 03:38:14;;;;;;;18.80;12.10;;;1.50;76.40;;;;;;5057830;28;20225;-78
2024/01/29 03:40:42;;;;;;;19.30;11.27;;;1.50;76.40;;;;;;5048803;28;20196;-78
2024/01/29 03:43:11;;;;;;;16.25;10.18;;;1.50;76.40;;;;;;5059513;28;20560;-78
2024/01/29 03:45:39;;;;;;;18.33;11.52;;;1.60;76.50;;;;;;5043831;28;20287;-78
2024/01/29 03:48:08;;;;;;;18.95;10.73;;;1.60;76.40;;;;;;5051314;28;20245;-76
2024/01/29 03:50:37;;;;;;;19.58;12.40;;;1.60;76.20;;;;;;5057023;28;20596;-77
2024/01/29 03:53:05;;;;;;;22.00;12.63;;;1.50;76.10;;;;;;5053434;28;20214;-76
2024/01/29 03:55:33;;;;;;;19.92;12.48;;;1.50;75.90;;;;;;5057214;28;20238;-77
2024/01/29 03:58:01;;;;;;;22.95;12.23;;;1.40;75.80;;;;;;5061715;28;20320;-77
2024/01/29 04:00:30;;;;;;;17.60;11.82;;;1.40;76.00;;;;;;5060144;28;20227;-76
2024/01/29 04:02:59;;;;;;;16.17;10.60;;;1.40;76.20;;;;;;5053793;28;20272;-76
2024/01/29 04:05:27;;;;;;;16.65;11.50;;;1.40;76.20;;;;;;5045188;28;20206;-76
2024/01/29 04:08:00;;;;;;;19.42;12.35;;;1.40;76.00;;;;;;5076378;28;20217;-78
2024/01/29 04:10:31;;;;;;;20.40;12.23;;;1.40;76.20;;;;;;5059582;28;20240;-78
2024/01/29 04:12:59;;;;;;;16.83;11.00;;;1.40;76.20;;;;;;5062740;28;20208;-78
2024/01/29 04:15:27;;;;;;;18.05;12.32;;;1.40;76.00;;;;;;5059542;28;20220;-78
2024/01/29 04:17:55;;;;;;;19.40;11.23;;;1.30;75.90;;;;;;5060398;28;20199;-77
2024/01/29 04:20:24;;;;;;;20.42;12.32;;;1.30;75.80;;;;;;5064321;28;20207;-78
2024/01/29 04:22:52;;;;;;;16.38;11.48;;;1.20;76.00;;;;;;5045464;28;20280;-77
2024/01/29 04:25:22;;;;;;;18.30;11.77;;;1.20;75.90;;;;;;5058040;28;20256;-77
2024/01/29 04:27:51;;;;;;;16.73;10.57;;;1.20;75.80;;;;;;5056099;28;20206;-76
2024/01/29 04:30:19;;;;;;;20.05;11.80;;;1.10;75.80;;;;;;5056058;28;20250;-77
2024/01/29 04:32:47;;;;;;;16.88;10.95;;;1.10;75.90;;;;;;5056424;28;20234;-77
2024/01/29 04:35:15;;;;;;;18.33;10.30;;;1.10;76.10;;;;;;5057030;28;20250;-77
2024/01/29 04:37:43;;;;;;;18.08;10.98;;;1.10;76.10;;;;;;5056157;28;20195;-77
2024/01/29 04:40:13;;;;;;;16.83;9.70;;;1.10;76.10;;;;;;5059590;28;20277;-77
2024/01/29 04:42:42;;;;;;;14.23;10.10;;;1.20;76.30;;;;;;5057535;28;20211;-76
2024/01/29 04:45:10;;;;;;;22.10;11.23;;;1.20;76.30;;;;;;5056480;28;20229;-76
2024/01/29 04:47:38;;;;;;;14.68;10.38;;;1.20;76.00;;;;;;5060222;28;20198;-76
2024/01/29 04:50:08;;;;;;;17.73;11.00;;;1.20;75.90;;;;;;5060757;28;20216;-77
2024/01/29 04:52:36;;;;;;;15.07;10.55;;;1.20;75.80;;;;;;5053748;28;20305;-77
2024/01/29 04:55:05;;;;;;;15.88;10.55;;;1.10;75.90;;;;;;5058394;28;20206;-76
2024/01/29 04:57:34;;;;;;;19.88;10.35;;;1.10;75.80;;;;;;5054806;28;20220;-76
2024/01/29 05:00:05;;;;;;;22.58;12.02;;;1.00;75.90;;;;;;5057546;28;20304;-77
2024/01/29 05:02:33;;;;;;;15.98;10.82;;;1.00;75.90;;;;;;5056843;28;20433;-77
2024/01/29 05:05:01;;;;;;;18.45;10.95;;;0.90;76.00;;;;;;5057934;28;20218;-77
2024/01/29 05:07:29;;;;;;;18.90;12.45;;;1.00;76.20;;;;;;5054811;28;20234;-77
2024/01/29 05:09:57;;;;;;;20.83;13.25;;;1.00;76.50;;;;;;5050355;28;20248;-77
2024/01/29 05:12:25;;;;;;;20.27;12.02;;;1.10;76.30;;;;;;5058722;28;20532;-77
2024/01/29 05:14:53;;;;;;;20.25;12.55;;;1.10;76.20;;;;;;5049260;28;20230;-77
2024/01/29 05:17:22;;;;;;;24.33;15.65;;;1.10;76.40;;;;;;5053021;28;20251;-77
2024/01/29 05:19:50;;;;;;;24.85;17.05;;;1.20;76.60;;;;;;5057911;28;20203;-77
2024/01/29 05:22:19;;;;;;;28.52;17.77;;;1.20;76.60;;;;;;5060721;28;20208;-77
2024/01/29 05:24:47;;;;;;;35.97;22.05;;;1.20;76.30;;;;;;5059511;28;20215;-77
2024/01/29 05:27:15;;;;;;;26.50;17.85;;;1.20;76.30;;;;;;5063710;28;20219;-77
2024/01/29 05:29:43;;;;;;;30.65;16.30;;;1.20;76.10;;;;;;5050368;28;20196;-77
2024/01/29 05:32:12;;;;;;;30.42;18.48;;;1.20;76.10;;;;;;5044593;28;20225;-77
2024/01/29 05:34:41;;;;;;;24.67;15.68;;;1.10;76.10;;;;;;5053444;28;20210;-77
2024/01/29 05:37:10;;;;;;;28.67;16.20;;;1.10;76.30;;;;;;5055171;28;20218;-78
2024/01/29 05:39:39;;;;;;;23.67;16.05;;;1.10;76.30;;;;;;5074059;28;20209;-77
2024/01/29 05:42:07;;;;;;;29.35;16.73;;;1.10;76.40;;;;;;5057857;28;20214;-78
2024/01/29 05:44:35;;;;;;;28.67;16.77;;;1.10;76.40;;;;;;5059129;28;20771;-76
2024/01/29 05:47:03;;;;;;;36.55;17.98;;;1.10;76.50;;;;;;5058947;28;20641;-76
2024/01/29 05:49:31;;;;;;;31.23;18.85;;;1.20;76.70;;;;;;5060502;28;20212;-76
2024/01/29 05:52:00;;;;;;;32.80;18.15;;;1.20;76.80;;;;;;5056054;28;20273;-76
2024/01/29 05:54:28;;;;;;;50.33;30.52;;;1.30;76.70;;;;;;5055665;28;20235;-76
2024/01/29 05:56:57;;;;;;;39.50;25.00;;;1.30;76.70;;;;;;5053833;28;20226;-76
2024/01/29 05:59:25;;;;;;;40.22;24.67;;;1.30;76.70;;;;;;5057799;28;20206;-76
2024/01/29 06:01:53;;;;;;;39.13;22.20;;;1.40;76.70;;;;;;5058327;28;20471;-76
2024/01/29 06:04:22;;;;;;;36.20;21.45;;;1.50;76.70;;;;;;5054012;28;20198;-76
2024/01/29 06:06:50;;;;;;;34.75;19.58;;;1.50;76.70;;;;;;5045052;28;20204;-76
2024/01/29 06:09:19;;;;;;;30.83;16.27;;;1.50;76.70;;;;;;5049140;28;20196;-76
2024/01/29 06:11:49;;;;;;;24.38;15.60;;;1.60;76.70;;;;;;5057756;28;20776;-76
2024/01/29 06:14:17;;;;;;;28.33;15.63;;;1.60;76.50;;;;;;5042435;28;20208;-76
2024/01/29 06:16:45;;;;;;;31.45;16.52;;;1.60;76.50;;;;;;5057248;28;20222;-76
2024/01/29 06:19:15;;;;;;;27.83;15.10;;;1.60;76.50;;;;;;5055254;28;20209;-76
2024/01/29 06:21:43;;;;;;;26.30;15.63;;;1.60;76.60;;;;;;5053423;28;20605;-76
2024/01/29 06:24:11;;;;;;;30.05;17.35;;;1.60;76.60;;;;;;5053190;28;20260;-76
2024/01/29 06:26:41;;;;;;;30.40;17.20;;;1.60;76.60;;;;;;5055330;28;20200;-76
2024/01/29 06:29:09;;;;;;;29.52;17.08;;;1.60;76.60;;;;;;5047042;28;20208;-76
2024/01/29 06:31:40;;;;;;;29.58;17.20;;;1.60;76.60;;;;;;5045196;28;20231;-76
2024/01/29 06:34:08;;;;;;;29.80;16.35;;;1.60;76.50;;;;;;5050600;28;20207;-76
2024/01/29 06:36:36;;;;;;;25.15;16.30;;;1.60;76.50;;;;;;5045845;28;20231;-76
2024/01/29 06:39:07;;;;;;;23.10;13.98;;;1.60;76.50;;;;;;5047104;28;20279;-76
2024/01/29 06:41:35;;;;;;;22.55;13.50;;;1.60;76.50;;;;;;5047912;28;20227;-76
2024/01/29 06:44:04;;;;;;;19.15;12.23;;;1.60;76.50;;;;;;5056628;28;20543;-76
2024/01/29 06:46:33;;;;;;;19.77;12.60;;;1.60;76.40;;;;;;5059548;28;20224;-76
2024/01/29 06:49:01;;;;;;;18.90;12.35;;;1.60;76.40;;;;;;5049921;28;20207;-76
2024/01/29 06:51:29;;;;;;;21.30;12.73;;;1.60;76.40;;;;;;5051450;28;20207;-76
2024/01/29 06:53:57;;;;;;;20.73;13.82;;;1.60;76.50;;;;;;5055761;28;20283;-76
2024/01/29 06:56:25;;;;;;;19.17;12.90;;;1.60;76.50;;;;;;5052157;28;20199;-76
2024/01/29 06:58:54;;;;;;;27.00;15.15;;;1.60;76.50;;;;;;5047923;28;20219;-76
2024/01/29 07:01:23;;;;;;;26.67;14.05;;;1.60;76.40;;;;;;5056954;28;20229;-76
2024/01/29 07:03:51;;;;;;;21.80;14.10;;;1.50;76.10;;;;;;5055434;28;20639;-76
2024/01/29 07:06:20;;;;;;;24.73;14.25;;;1.40;76.00;;;;;;5049142;28;20203;-76
2024/01/29 07:08:49;;;;;;;21.83;13.07;;;1.40;76.20;;;;;;5050762;28;20215;-76
2024/01/29 07:11:17;;;;;;;20.05;13.05;;;1.40;76.30;;;;;;5050886;28;20261;-76
2024/01/29 07:13:45;;;;;;;21.33;12.32;;;1.40;76.40;;;;;;5049317;28;20210;-76
2024/01/29 07:16:13;;;;;;;21.40;12.10;;;1.40;76.40;;;;;;5056506;28;20208;-76
2024/01/29 07:18:42;;;;;;;20.58;12.05;;;1.40;76.40;;;;;;5051265;28;20228;-76
2024/01/29 07:21:11;;;;;;;21.92;11.80;;;1.50;76.50;;;;;;5054361;28;20258;-76
2024/01/29 07:23:40;;;;;;;21.58;12.50;;;1.50;76.50;;;;;;5052581;28;20199;-76
2024/01/29 07:26:08;;;;;;;20.48;13.60;;;1.50;76.50;;;;;;5042061;28;20206;-76
2024/01/29 07:28:36;;;;;;;16.60;12.15;;;1.50;76.50;;;;;;5062816;28;20702;-76
2024/01/29 07:31:04;;;;;;;24.23;13.68;;;1.60;76.50;;;;;;5057918;28;20312;-76
2024/01/29 07:33:32;;;;;;;23.73;14.45;;;1.60;76.50;;;;;;5057115;28;20689;-76
2024/01/29 07:36:04;;;;;;;35.97;19.20;;;1.60;76.40;;;;;;5055970;28;20200;-76
2024/01/29 07:38:32;;;;;;;28.27;15.20;;;1.50;76.30;;;;;;5055547;28;20211;-76
2024/01/29 07:41:00;;;;;;;21.08;12.90;;;1.50;76.40;;;;;;5057046;28;20232;-76
2024/01/29 07:43:28;;;;;;;22.23;14.30;;;1.50;76.50;;;;;;5059050;28;20222;-76
2024/01/29 07:45:56;;;;;;;29.73;16.92;;;1.50;76.60;;;;;;5057618;28;20208;-76
2024/01/29 07:48:24;;;;;;;32.83;20.00;;;1.60;76.70;;;;;;5055596;28;20244;-76
2024/01/29 07:50:52;;;;;;;40.42;23.17;;;1.60;76.60;;;;;;5066157;28;20265;-76
2024/01/29 07:53:22;;;;;;;45.97;27.80;;;1.60;76.50;;;;;;5055903;28;20275;-76
2024/01/29 07:55:50;;;;;;;48.20;25.95;;;1.60;76.50;;;;;;5057191;28;20218;-76
2024/01/29 07:58:18;;;;;;;47.00;25.15;;;1.60;76.50;;;;;;5057000;28;20318;-76
2024/01/29 08:00:50;;;;;;;39.00;22.92;;;1.60;76.60;;;;;;5055044;28;20258;-76
2024/01/29 08:03:19;;;;;;;32.30;18.92;;;1.60;76.70;;;;;;5054911;28;20307;-76
2024/01/29 08:05:47;;;;;;;27.77;15.30;;;1.70;76.80;;;;;;5058234;28;20519;-76
2024/01/29 08:08:15;;;;;;;22.13;13.60;;;1.70;76.80;;;;;;5051744;28;20200;-76
2024/01/29 08:10:46;;;;;;;21.52;12.75;;;1.70;76.80;;;;;;5079400;28;20679;-76
2024/01/29 08:13:14;;;;;;;18.98;13.00;;;1.80;76.80;;;;;;5053145;28;20290;-76
2024/01/29 08:15:42;;;;;;;18.50;11.95;;;1.80;76.90;;;;;;5057791;28;20204;-76
2024/01/29 08:18:10;;;;;;;20.85;12.20;;;1.90;76.90;;;;;;5053669;28;20254;-76
2024/01/29 08:20:38;;;;;;;21.20;12.73;;;1.90;76.90;;;;;;5056080;28;20223;-76
2024/01/29 08:23:07;;;;;;;20.20;13.70;;;1.90;76.90;;;;;;5053796;28;20655;-76
2024/01/29 08:25:35;;;;;;;19.05;12.07;;;1.90;77.00;;;;;;5056195;28;20203;-76
2024/01/29 08:28:05;;;;;;;20.70;12.40;;;2.00;76.90;;;;;;5058922;28;20680;-76
2024/01/29 08:30:33;;;;;;;20.10;11.90;;;2.00;77.00;;;;;;5052558;28;20239;-76
2024/01/29 08:33:01;;;;;;;19.75;11.95;;;2.00;76.90;;;;;;5047983;28;20314;-76
2024/01/29 08:35:30;;;;;;;18.15;12.10;;;2.00;76.90;;;;;;5053458;28;20219;-76
2024/01/29 08:37:59;;;;;;;20.67;13.10;;;2.00;76.90;;;;;;5050146;28;20641;-76
2024/01/29 08:40:29;;;;;;;26.85;16.65;;;2.00;76.90;;;;;;5056854;28;20624;-76
2024/01/29 08:42:57;;;;;;;28.63;16.10;;;2.00;76.90;;;;;;5049685;28;20196;-76
2024/01/29 08:45:27;;;;;;;25.45;16.85;;;2.10;77.00;;;;;;5047324;28;20216;-76
2024/01/29 08:47:55;;;;;;;27.73;17.00;;;2.10;77.20;;;;;;5053847;28;20288;-76
2024/01/29 08:50:23;;;;;;;25.92;17.88;;;2.10;77.20;;;;;;5054618;28;20214;-76
2024/01/29 08:52:51;;;;;;;27.52;18.95;;;2.10;77.00;;;;;;5057930;28;20587;-76
2024/01/29 08:55:19;;;;;;;32.13;23.55;;;2.10;77.20;;;;;;5055440;28;20202;-76
2024/01/29 08:57:47;;;;;;;42.88;29.23;;;2.20;77.20;;;;;;5056505;28;20219;-76
2024/01/29 09:00:15;;;;;;;38.17;26.55;;;2.20;77.20;;;;;;5061270;28;20223;-76
2024/01/29 09:02:46;;;;;;;35.15;25.77;;;2.20;77.40;;;;;;5053291;28;20542;-76
2024/01/29 09:05:14;;;;;;;32.70;25.70;;;2.30;77.40;;;;;;5061946;28;20208;-76
2024/01/29 09:07:42;;;;;;;42.92;28.38;;;2.30;77.50;;;;;;5053037;28;20206;-76
2024/01/29 09:10:11;;;;;;;40.00;28.75;;;2.40;77.50;;;;;;5050370;28;20209;-76
2024/01/29 09:12:39;;;;;;;36.80;27.17;;;2.40;77.60;;;;;;5060117;28;20246;-76
2024/01/29 09:15:09;;;;;;;30.58;24.45;;;2.50;77.50;;;;;;5057007;28;20210;-77
2024/01/29 09:17:37;;;;;;;35.72;25.15;;;2.50;77.50;;;;;;5066044;28;20203;-76
2024/01/29 09:20:08;;;;;;;33.03;22.23;;;2.50;77.50;;;;;;5058674;28;20592;-76
2024/01/29 09:22:36;;;;;;;28.80;20.77;;;2.60;77.50;;;;;;5051864;28;20208;-76
2024/01/29 09:25:06;;;;;;;28.42;21.60;;;2.60;77.60;;;;;;5062021;28;20203;-76
2024/01/29 09:27:35;;;;;;;30.05;19.70;;;2.70;77.60;;;;;;5056490;28;20293;-76
2024/01/29 09:30:04;;;;;;;28.85;19.25;;;2.70;77.60;;;;;;5053419;28;20206;-76
2024/01/29 09:32:32;;;;;;;31.08;18.08;;;2.70;77.60;;;;;;5050390;28;20208;-76
2024/01/29 09:35:00;;;;;;;23.05;16.75;;;2.80;77.70;;;;;;5053378;28;20677;-76
2024/01/29 09:37:30;;;;;;;23.52;17.75;;;2.80;77.70;;;;;;5056632;28;20375;-76
2024/01/29 09:40:00;;;;;;;23.77;15.45;;;2.80;77.70;;;;;;5053883;28;20330;-76
2024/01/29 09:42:31;;;;;;;23.05;14.93;;;2.90;77.60;;;;;;5050107;28;20227;-76
2024/01/29 09:45:02;;;;;;;31.42;15.80;;;2.90;77.60;;;;;;5055843;28;20265;-76
2024/01/29 09:47:31;;;;;;;20.50;14.55;;;2.90;77.60;;;;;;5051253;28;20303;-76
2024/01/29 09:50:00;;;;;;;25.63;13.95;;;3.00;77.60;;;;;;5060231;28;20285;-76
2024/01/29 09:52:30;;;;;;;21.38;12.45;;;3.00;77.60;;;;;;5054690;28;20207;-75
2024/01/29 09:55:00;;;;;;;23.05;12.85;;;3.00;77.60;;;;;;5057183;28;20228;-76
2024/01/29 09:57:28;;;;;;;18.35;12.32;;;3.00;77.60;;;;;;5058428;28;20207;-76
2024/01/29 09:59:56;;;;;;;17.02;11.90;;;3.10;77.60;;;;;;5048723;28;20216;-76
2024/01/29 10:02:25;;;;;;;21.35;14.27;;;3.10;77.70;;;;;;5044030;28;20732;-76
2024/01/29 10:04:54;;;;;;;17.77;13.60;;;3.10;77.70;;;;;;5052931;28;20223;-76
2024/01/29 10:07:24;;;;;;;20.55;14.10;;;3.20;77.70;;;;;;5051297;28;20254;-76
2024/01/29 10:09:53;;;;;;;25.65;15.73;;;3.20;77.70;;;;;;5053455;28;20331;-76
2024/01/29 10:12:22;;;;;;;22.42;13.60;;;3.20;77.80;;;;;;5052017;28;20211;-76
2024/01/29 10:14:55;;;;;;;28.05;17.70;;;3.30;77.80;;;;;;5051618;28;20626;-76
2024/01/29 10:17:24;;;;;;;29.70;18.67;;;3.30;77.80;;;;;;5050861;28;20208;-76
2024/01/29 10:19:52;;;;;;;27.77;16.55;;;3.40;77.80;;;;;;5047772;28;20227;-76
2024/01/29 10:22:24;;;;;;;28.42;16.30;;;3.40;77.80;;;;;;5051487;28;20216;-76
2024/01/29 10:25:02;;;;;;;29.38;17.88;;;3.40;77.80;;;;;;5048351;28;20200;-76
2024/01/29 10:27:31;;;;;;;27.70;17.23;;;3.50;77.80;;;;;;5054272;28;20637;-76
2024/01/29 10:29:59;;;;;;;27.98;17.48;;;3.50;77.80;;;;;;5058168;28;20207;-76
2024/01/29 10:32:27;;;;;;;22.25;14.77;;;3.60;77.80;;;;;;5047484;28;20223;-76
2024/01/29 10:34:56;;;;;;;20.00;12.30;;;3.60;77.80;;;;;;5052931;28;20202;-76
2024/01/29 10:37:27;;;;;;;20.17;12.98;;;3.60;77.80;;;;;;5053769;28;20245;-76
2024/01/29 10:39:56;;;;;;;21.20;12.38;;;3.70;77.90;;;;;;5055252;28;20306;-76
2024/01/29 10:42:29;;;;;;;17.80;12.07;;;3.70;77.90;;;;;;5053510;28;20250;-76
2024/01/29 10:45:01;;;;;;;17.02;11.93;;;3.70;77.90;;;;;;5045732;28;20216;-76
2024/01/29 10:47:33;;;;;;;22.92;13.40;;;3.80;78.00;;;;;;5044370;28;20272;-76
2024/01/29 10:50:02;;;;;;;17.98;12.35;;;3.90;78.00;;;;;;5044515;28;20192;-76
2024/01/29 10:52:31;;;;;;;20.10;12.25;;;3.90;78.00;;;;;;5053419;28;20208;-76
2024/01/29 10:55:00;;;;;;;19.70;12.90;;;4.00;78.00;;;;;;5054984;28;20212;-76
2024/01/29 10:57:31;;;;;;;20.23;13.68;;;4.00;78.00;;;;;;5058138;28;20230;-76
2024/01/29 10:59:59;;;;;;;19.20;12.77;;;4.10;78.00;;;;;;5053286;28;20227;-75
2024/01/29 11:02:29;;;;;;;17.70;12.90;;;4.10;78.00;;;;;;5050753;28;20315;-76
2024/01/29 11:04:57;;;;;;;16.02;12.82;;;4.10;78.00;;;;;;5051677;28;20208;-76
2024/01/29 11:07:29;;;;;;;19.13;13.23;;;4.20;77.90;;;;;;5049258;28;20212;-76
2024/01/29 11:10:03;;;;;;;20.08;14.27;;;4.20;77.90;;;;;;5037339;28;20215;-76
2024/01/29 11:12:34;;;;;;;20.75;12.07;;;4.20;77.90;;;;;;5048104;28;20273;-76
2024/01/29 11:15:04;;;;;;;21.35;13.27;;;4.30;78.00;;;;;;5048789;28;20498;-77
2024/01/29 11:17:32;;;;;;;17.88;13.00;;;4.30;78.00;;;;;;5044099;28;20214;-76
2024/01/29 11:20:02;;;;;;;18.85;13.15;;;4.30;78.10;;;;;;5046831;28;20226;-76
2024/01/29 11:22:37;;;;;;;23.52;13.73;;;4.40;78.10;;;;;;5051015;28;20542;-76
2024/01/29 11:25:09;;;;;;;23.38;16.10;;;4.40;78.20;;;;;;5049686;28;20623;-76
2024/01/29 11:27:40;;;;;;;19.50;12.57;;;4.40;78.20;;;;;;5045869;28;20204;-76
2024/01/29 11:30:16;;;;;;;18.88;12.63;;;4.50;78.20;;;;;;5053408;28;20574;-76
2024/01/29 11:32:45;;;;;;;20.55;13.75;;;4.50;78.30;;;;;;5044588;28;20534;-76
2024/01/29 11:35:15;;;;;;;23.20;14.43;;;4.60;78.30;;;;;;5052487;28;20250;-76
2024/01/29 11:37:52;;;;;;;20.23;13.82;;;4.70;78.30;;;;;;5053457;28;20285;-76
2024/01/29 11:40:38;;;;;;;23.23;13.38;;;4.70;78.30;;;;;;5054047;28;20232;-76
2024/01/29 11:43:14;;;;;;;18.95;12.05;;;4.80;78.30;;;;;;5058878;28;20660;-76
2024/01/29 11:45:42;;;;;;;24.10;13.20;;;4.80;78.20;;;;;;5054145;28;20243;-76
2024/01/29 11:48:11;;;;;;;19.13;12.63;;;4.90;78.30;;;;;;5057238;28;20866;-76
2024/01/29 11:50:41;;;;;;;21.92;14.00;;;5.00;78.30;;;;;;5056020;28;20616;-76
2024/01/29 11:53:11;;;;;;;22.75;14.85;;;5.00;78.20;;;;;;5055276;28;20196;-76
2024/01/29 11:55:40;;;;;;;26.80;13.85;;;5.10;78.20;;;;;;5053045;28;20230;-76
2024/01/29 11:58:13;;;;;;;21.33;14.20;;;5.10;78.20;;;;;;5038336;28;20637;-76
2024/01/29 12:00:43;;;;;;;19.75;12.63;;;5.20;78.30;;;;;;5053208;28;20282;-76
2024/01/29 12:03:14;;;;;;;20.50;13.68;;;5.20;78.20;;;;;;5048199;28;20993;-76
2024/01/29 12:05:42;;;;;;;22.25;14.35;;;5.30;78.30;;;;;;5048435;28;20204;-76
2024/01/29 12:08:14;;;;;;;19.27;13.38;;;5.30;78.30;;;;;;5045207;28;20302;-76
2024/01/29 12:10:43;;;;;;;19.73;13.00;;;5.40;78.40;;;;;;5043336;28;20205;-76
2024/01/29 12:13:16;;;;;;;21.77;13.48;;;5.40;78.40;;;;;;5052589;28;20200;-76
2024/01/29 12:15:45;;;;;;;16.98;12.15;;;5.50;78.40;;;;;;5051479;28;20280;-75
2024/01/29 12:18:17;;;;;;;18.08;12.40;;;5.50;78.40;;;;;;5055580;28;20286;-76
2024/01/29 12:20:47;;;;;;;14.02;10.68;;;5.50;78.30;;;;;;5057858;28;20228;-76
2024/01/29 12:23:16;;;;;;;14.38;10.27;;;5.60;78.30;;;;;;5056379;28;20204;-76
2024/01/29 12:25:45;;;;;;;15.68;10.90;;;5.60;78.40;;;;;;5054377;28;20211;-76
2024/01/29 12:28:15;;;;;;;20.75;12.45;;;5.70;78.40;;;;;;5053982;28;20208;-76
2024/01/29 12:30:52;;;;;;;16.83;11.43;;;5.70;78.40;;;;;;5052680;28;20342;-76
2024/01/29 12:33:27;;;;;;;19.70;12.30;;;5.80;78.30;;;;;;5055526;28;20597;-77
2024/01/29 12:35:56;;;;;;;17.70;11.02;;;5.80;78.30;;;;;;5055442;28;20197;-76
2024/01/29 12:38:24;;;;;;;19.50;11.77;;;5.80;78.30;;;;;;5055936;28;20308;-76
2024/01/29 12:40:56;;;;;;;17.52;12.10;;;5.90;78.30;;;;;;5055029;28;20242;-76
2024/01/29 12:43:29;;;;;;;18.17;12.60;;;5.90;78.30;;;;;;5069723;28;20212;-77